sensor_id;sensor_type;location;lat;lon;timestamp;P1;durP1;ratioP1;P2;durP2;ratioP2
36001;SDS011;22070;50.922;5.430;2023-02-28T00:00:10;9.80;;;4.28;;
36001;SDS011;22070;50.922;5.430;2023-02-28T00:02:37;6.05;;;4.10;;
36001;SDS011;22070;50.922;5.430;2023-02-28T00:05:05;7.30;;;3.78;;
36001;SDS011;22070;50.922;5.430;2023-02-28T00:07:31;8.20;;;3.88;;
36001;SDS011;22070;50.922;5.430;2023-02-28T00:09:57;7.67;;;3.63;;
36001;SDS011;22070;50.922;5.430;2023-02-28T00:12:23;7.85;;;4.20;;
36001;SDS011;22070;50.922;5.430;2023-02-28T00:14:49;5.67;;;3.60;;
36001;SDS011;22070;50.922;5.430;2023-02-28T00:17:16;7.82;;;4.28;;
36001;SDS011;22070;50.922;5.430;2023-02-28T00:19:49;15.40;;;4.18;;
36001;SDS011;22070;50.922;5.430;2023-02-28T00:22:16;8.73;;;4.38;;
36001;SDS011;22070;50.922;5.430;2023-02-28T00:24:43;12.23;;;4.60;;
36001;SDS011;22070;50.922;5.430;2023-02-28T00:27:09;7.60;;;4.22;;
36001;SDS011;22070;50.922;5.430;2023-02-28T00:32:01;8.00;;;4.23;;
36001;SDS011;22070;50.922;5.430;2023-02-28T00:34:27;9.30;;;4.27;;
36001;SDS011;22070;50.922;5.430;2023-02-28T00:36:53;11.63;;;4.70;;
36001;SDS011;22070;50.922;5.430;2023-02-28T00:39:18;11.57;;;4.75;;
36001;SDS011;22070;50.922;5.430;2023-02-28T00:41:44;7.27;;;3.90;;
36001;SDS011;22070;50.922;5.430;2023-02-28T00:44:09;5.45;;;3.88;;
36001;SDS011;22070;50.922;5.430;2023-02-28T00:46:35;10.40;;;4.20;;
36001;SDS011;22070;50.922;5.430;2023-02-28T00:49:01;7.57;;;3.85;;
36001;SDS011;22070;50.922;5.430;2023-02-28T00:51:26;9.47;;;4.00;;
36001;SDS011;22070;50.922;5.430;2023-02-28T00:53:52;9.20;;;4.22;;
36001;SDS011;22070;50.922;5.430;2023-02-28T00:56:17;8.57;;;4.10;;
36001;SDS011;22070;50.922;5.430;2023-02-28T00:58:43;6.38;;;4.55;;
36001;SDS011;22070;50.922;5.430;2023-02-28T01:01:09;9.23;;;3.90;;
36001;SDS011;22070;50.922;5.430;2023-02-28T01:03:34;10.13;;;4.13;;
36001;SDS011;22070;50.922;5.430;2023-02-28T01:06:00;8.63;;;4.40;;
36001;SDS011;22070;50.922;5.430;2023-02-28T01:08:26;9.65;;;4.60;;
36001;SDS011;22070;50.922;5.430;2023-02-28T01:10:51;8.57;;;4.23;;
36001;SDS011;22070;50.922;5.430;2023-02-28T01:13:17;8.93;;;5.15;;
36001;SDS011;22070;50.922;5.430;2023-02-28T01:15:46;8.40;;;4.00;;
36001;SDS011;22070;50.922;5.430;2023-02-28T01:18:15;8.70;;;4.05;;
36001;SDS011;22070;50.922;5.430;2023-02-28T01:20:41;7.32;;;4.63;;
36001;SDS011;22070;50.922;5.430;2023-02-28T01:23:07;10.13;;;4.57;;
36001;SDS011;22070;50.922;5.430;2023-02-28T01:25:36;8.57;;;4.80;;
36001;SDS011;22070;50.922;5.430;2023-02-28T01:28:02;13.13;;;4.60;;
36001;SDS011;22070;50.922;5.430;2023-02-28T01:30:28;8.75;;;4.88;;
36001;SDS011;22070;50.922;5.430;2023-02-28T01:32:54;10.87;;;5.30;;
36001;SDS011;22070;50.922;5.430;2023-02-28T01:35:20;10.67;;;4.90;;
36001;SDS011;22070;50.922;5.430;2023-02-28T01:37:45;9.65;;;5.15;;
36001;SDS011;22070;50.922;5.430;2023-02-28T01:40:11;10.37;;;4.70;;
36001;SDS011;22070;50.922;5.430;2023-02-28T01:42:37;8.30;;;3.65;;
36001;SDS011;22070;50.922;5.430;2023-02-28T01:45:14;9.25;;;4.40;;
36001;SDS011;22070;50.922;5.430;2023-02-28T01:47:42;9.20;;;4.72;;
36001;SDS011;22070;50.922;5.430;2023-02-28T01:50:16;9.07;;;4.25;;
36001;SDS011;22070;50.922;5.430;2023-02-28T01:52:45;8.43;;;4.55;;
36001;SDS011;22070;50.922;5.430;2023-02-28T01:55:13;10.80;;;4.75;;
36001;SDS011;22070;50.922;5.430;2023-02-28T01:57:52;7.03;;;4.70;;
36001;SDS011;22070;50.922;5.430;2023-02-28T02:00:21;9.13;;;4.03;;
36001;SDS011;22070;50.922;5.430;2023-02-28T02:02:50;9.88;;;4.65;;
36001;SDS011;22070;50.922;5.430;2023-02-28T02:05:22;7.20;;;4.68;;
36001;SDS011;22070;50.922;5.430;2023-02-28T02:07:51;7.25;;;4.30;;
36001;SDS011;22070;50.922;5.430;2023-02-28T02:10:53;12.02;;;4.90;;
36001;SDS011;22070;50.922;5.430;2023-02-28T02:35:59;8.30;;;4.68;;
36001;SDS011;22070;50.922;5.430;2023-02-28T02:43:54;8.93;;;5.00;;
36001;SDS011;22070;50.922;5.430;2023-02-28T02:46:44;10.77;;;5.13;;
36001;SDS011;22070;50.922;5.430;2023-02-28T02:49:12;9.00;;;4.63;;
36001;SDS011;22070;50.922;5.430;2023-02-28T02:51:51;10.02;;;4.80;;
36001;SDS011;22070;50.922;5.430;2023-02-28T02:54:26;8.23;;;5.10;;
36001;SDS011;22070;50.922;5.430;2023-02-28T02:56:53;11.57;;;4.78;;
36001;SDS011;22070;50.922;5.430;2023-02-28T02:59:24;9.75;;;4.90;;
36001;SDS011;22070;50.922;5.430;2023-02-28T03:01:53;13.15;;;5.25;;
36001;SDS011;22070;50.922;5.430;2023-02-28T03:04:22;9.90;;;5.30;;
36001;SDS011;22070;50.922;5.430;2023-02-28T03:06:50;10.23;;;4.90;;
36001;SDS011;22070;50.922;5.430;2023-02-28T03:09:23;9.98;;;5.20;;
36001;SDS011;22070;50.922;5.430;2023-02-28T03:11:50;10.55;;;5.00;;
36001;SDS011;22070;50.922;5.430;2023-02-28T03:19:55;9.48;;;5.20;;
36001;SDS011;22070;50.922;5.430;2023-02-28T03:25:47;7.25;;;5.00;;
36001;SDS011;22070;50.922;5.430;2023-02-28T03:31:25;10.65;;;5.10;;
36001;SDS011;22070;50.922;5.430;2023-02-28T03:33:59;8.93;;;5.47;;
36001;SDS011;22070;50.922;5.430;2023-02-28T03:36:30;10.95;;;5.63;;
36001;SDS011;22070;50.922;5.430;2023-02-28T03:39:05;13.23;;;5.47;;
36001;SDS011;22070;50.922;5.430;2023-02-28T03:41:38;10.40;;;5.50;;
36001;SDS011;22070;50.922;5.430;2023-02-28T03:44:13;8.70;;;5.40;;
36001;SDS011;22070;50.922;5.430;2023-02-28T03:49:22;11.82;;;5.75;;
36001;SDS011;22070;50.922;5.430;2023-02-28T03:51:52;10.18;;;5.35;;
36001;SDS011;22070;50.922;5.430;2023-02-28T03:54:31;13.93;;;5.90;;
36001;SDS011;22070;50.922;5.430;2023-02-28T03:57:03;9.48;;;5.25;;
36001;SDS011;22070;50.922;5.430;2023-02-28T03:59:43;10.15;;;5.35;;
36001;SDS011;22070;50.922;5.430;2023-02-28T04:02:12;11.25;;;5.60;;
36001;SDS011;22070;50.922;5.430;2023-02-28T04:04:38;11.13;;;5.60;;
36001;SDS011;22070;50.922;5.430;2023-02-28T04:07:09;12.18;;;5.65;;
36001;SDS011;22070;50.922;5.430;2023-02-28T04:12:02;11.73;;;5.50;;
36001;SDS011;22070;50.922;5.430;2023-02-28T04:14:28;14.93;;;5.50;;
36001;SDS011;22070;50.922;5.430;2023-02-28T04:16:54;9.33;;;5.27;;
36001;SDS011;22070;50.922;5.430;2023-02-28T04:19:19;14.35;;;5.70;;
36001;SDS011;22070;50.922;5.430;2023-02-28T04:21:49;8.77;;;5.63;;
36001;SDS011;22070;50.922;5.430;2023-02-28T04:24:25;9.05;;;5.57;;
36001;SDS011;22070;50.922;5.430;2023-02-28T04:26:53;9.38;;;5.57;;
36001;SDS011;22070;50.922;5.430;2023-02-28T04:29:24;14.88;;;6.03;;
36001;SDS011;22070;50.922;5.430;2023-02-28T04:31:52;13.82;;;5.95;;
36001;SDS011;22070;50.922;5.430;2023-02-28T04:34:18;11.27;;;5.00;;
36001;SDS011;22070;50.922;5.430;2023-02-28T04:36:45;13.90;;;6.10;;
36001;SDS011;22070;50.922;5.430;2023-02-28T04:39:19;10.35;;;5.75;;
36001;SDS011;22070;50.922;5.430;2023-02-28T04:41:45;10.33;;;5.63;;
36001;SDS011;22070;50.922;5.430;2023-02-28T04:44:10;12.80;;;6.20;;
36001;SDS011;22070;50.922;5.430;2023-02-28T04:46:36;13.00;;;6.85;;
36001;SDS011;22070;50.922;5.430;2023-02-28T04:49:02;11.83;;;6.20;;
36001;SDS011;22070;50.922;5.430;2023-02-28T04:51:28;12.18;;;6.18;;
36001;SDS011;22070;50.922;5.430;2023-02-28T04:53:54;15.82;;;5.78;;
36001;SDS011;22070;50.922;5.430;2023-02-28T04:56:20;7.45;;;4.38;;
36001;SDS011;22070;50.922;5.430;2023-02-28T04:58:46;11.02;;;5.80;;
36001;SDS011;22070;50.922;5.430;2023-02-28T05:01:28;13.00;;;6.00;;
36001;SDS011;22070;50.922;5.430;2023-02-28T05:03:58;12.93;;;6.57;;
36001;SDS011;22070;50.922;5.430;2023-02-28T05:06:26;11.07;;;6.40;;
36001;SDS011;22070;50.922;5.430;2023-02-28T05:08:54;9.20;;;5.75;;
36001;SDS011;22070;50.922;5.430;2023-02-28T05:11:21;12.65;;;6.28;;
36001;SDS011;22070;50.922;5.430;2023-02-28T05:13:47;9.15;;;5.85;;
36001;SDS011;22070;50.922;5.430;2023-02-28T05:16:13;18.48;;;6.63;;
36001;SDS011;22070;50.922;5.430;2023-02-28T05:18:39;17.35;;;6.50;;
36001;SDS011;22070;50.922;5.430;2023-02-28T05:21:05;10.33;;;5.90;;
36001;SDS011;22070;50.922;5.430;2023-02-28T05:23:48;13.68;;;6.15;;
36001;SDS011;22070;50.922;5.430;2023-02-28T05:26:14;10.60;;;5.87;;
36001;SDS011;22070;50.922;5.430;2023-02-28T05:28:39;13.43;;;6.40;;
36001;SDS011;22070;50.922;5.430;2023-02-28T05:31:05;9.43;;;5.87;;
36001;SDS011;22070;50.922;5.430;2023-02-28T05:33:31;13.48;;;6.38;;
36001;SDS011;22070;50.922;5.430;2023-02-28T05:35:56;12.87;;;6.50;;
36001;SDS011;22070;50.922;5.430;2023-02-28T05:38:22;12.43;;;6.03;;
36001;SDS011;22070;50.922;5.430;2023-02-28T05:40:47;15.77;;;7.57;;
36001;SDS011;22070;50.922;5.430;2023-02-28T05:43:13;13.47;;;6.50;;
36001;SDS011;22070;50.922;5.430;2023-02-28T05:45:39;11.70;;;6.63;;
36001;SDS011;22070;50.922;5.430;2023-02-28T05:48:04;17.23;;;6.93;;
36001;SDS011;22070;50.922;5.430;2023-02-28T05:50:30;13.57;;;6.50;;
36001;SDS011;22070;50.922;5.430;2023-02-28T05:52:56;12.83;;;6.10;;
36001;SDS011;22070;50.922;5.430;2023-02-28T05:55:22;12.63;;;5.75;;
36001;SDS011;22070;50.922;5.430;2023-02-28T05:57:47;12.47;;;6.43;;
36001;SDS011;22070;50.922;5.430;2023-02-28T06:00:13;11.80;;;6.03;;
36001;SDS011;22070;50.922;5.430;2023-02-28T06:02:40;14.32;;;6.72;;
36001;SDS011;22070;50.922;5.430;2023-02-28T06:05:13;11.17;;;6.47;;
36001;SDS011;22070;50.922;5.430;2023-02-28T06:07:41;17.23;;;6.75;;
36001;SDS011;22070;50.922;5.430;2023-02-28T06:10:07;12.20;;;5.93;;
36001;SDS011;22070;50.922;5.430;2023-02-28T06:12:33;15.00;;;6.05;;
36001;SDS011;22070;50.922;5.430;2023-02-28T06:14:58;12.43;;;5.95;;
36001;SDS011;22070;50.922;5.430;2023-02-28T06:17:24;11.47;;;6.50;;
36001;SDS011;22070;50.922;5.430;2023-02-28T06:19:50;8.27;;;4.30;;
36001;SDS011;22070;50.922;5.430;2023-02-28T06:22:15;12.25;;;5.80;;
36001;SDS011;22070;50.922;5.430;2023-02-28T06:24:41;11.50;;;5.60;;
36001;SDS011;22070;50.922;5.430;2023-02-28T06:27:07;13.97;;;6.10;;
36001;SDS011;22070;50.922;5.430;2023-02-28T06:29:33;7.00;;;4.07;;
36001;SDS011;22070;50.922;5.430;2023-02-28T06:32:01;12.90;;;5.72;;
36001;SDS011;22070;50.922;5.430;2023-02-28T06:34:26;16.87;;;5.90;;
36001;SDS011;22070;50.922;5.430;2023-02-28T06:36:52;10.83;;;5.90;;
36001;SDS011;22070;50.922;5.430;2023-02-28T06:39:18;11.73;;;5.93;;
36001;SDS011;22070;50.922;5.430;2023-02-28T06:41:44;12.23;;;5.67;;
36001;SDS011;22070;50.922;5.430;2023-02-28T06:44:14;9.57;;;5.43;;
36001;SDS011;22070;50.922;5.430;2023-02-28T06:46:42;11.68;;;5.82;;
36001;SDS011;22070;50.922;5.430;2023-02-28T06:49:09;13.38;;;6.10;;
36001;SDS011;22070;50.922;5.430;2023-02-28T06:51:36;8.10;;;4.70;;
36001;SDS011;22070;50.922;5.430;2023-02-28T06:54:03;13.10;;;5.78;;
36001;SDS011;22070;50.922;5.430;2023-02-28T06:56:29;16.23;;;6.10;;
36001;SDS011;22070;50.922;5.430;2023-02-28T06:58:54;14.37;;;5.77;;
36001;SDS011;22070;50.922;5.430;2023-02-28T07:01:21;13.50;;;6.00;;
36001;SDS011;22070;50.922;5.430;2023-02-28T07:03:50;8.80;;;5.40;;
36001;SDS011;22070;50.922;5.430;2023-02-28T07:06:17;13.13;;;6.05;;
36001;SDS011;22070;50.922;5.430;2023-02-28T07:08:43;11.60;;;5.13;;
36001;SDS011;22070;50.922;5.430;2023-02-28T07:11:10;11.40;;;5.20;;
36001;SDS011;22070;50.922;5.430;2023-02-28T07:13:36;9.05;;;4.78;;
36001;SDS011;22070;50.922;5.430;2023-02-28T07:16:05;12.57;;;5.40;;
36001;SDS011;22070;50.922;5.430;2023-02-28T07:18:34;11.15;;;5.22;;
36001;SDS011;22070;50.922;5.430;2023-02-28T07:21:04;9.68;;;5.30;;
36001;SDS011;22070;50.922;5.430;2023-02-28T07:23:32;9.68;;;4.60;;
36001;SDS011;22070;50.922;5.430;2023-02-28T07:25:57;8.30;;;4.80;;
36001;SDS011;22070;50.922;5.430;2023-02-28T07:28:23;9.27;;;5.20;;
36001;SDS011;22070;50.922;5.430;2023-02-28T07:30:50;10.20;;;5.10;;
36001;SDS011;22070;50.922;5.430;2023-02-28T07:33:15;11.47;;;5.63;;
36001;SDS011;22070;50.922;5.430;2023-02-28T07:35:41;13.05;;;5.63;;
36001;SDS011;22070;50.922;5.430;2023-02-28T07:38:07;9.13;;;5.10;;
36001;SDS011;22070;50.922;5.430;2023-02-28T07:40:33;18.67;;;5.70;;
36001;SDS011;22070;50.922;5.430;2023-02-28T07:43:00;11.43;;;5.25;;
36001;SDS011;22070;50.922;5.430;2023-02-28T07:45:26;10.40;;;4.90;;
36001;SDS011;22070;50.922;5.430;2023-02-28T07:47:53;12.13;;;5.30;;
36001;SDS011;22070;50.922;5.430;2023-02-28T07:50:19;10.13;;;5.13;;
36001;SDS011;22070;50.922;5.430;2023-02-28T07:52:45;10.18;;;4.40;;
36001;SDS011;22070;50.922;5.430;2023-02-28T07:55:11;8.90;;;4.83;;
36001;SDS011;22070;50.922;5.430;2023-02-28T07:57:36;13.37;;;4.33;;
36001;SDS011;22070;50.922;5.430;2023-02-28T08:00:03;9.07;;;4.57;;
36001;SDS011;22070;50.922;5.430;2023-02-28T08:02:30;8.52;;;4.38;;
36001;SDS011;22070;50.922;5.430;2023-02-28T08:04:56;10.15;;;5.47;;
36001;SDS011;22070;50.922;5.430;2023-02-28T08:07:21;7.60;;;4.27;;
36001;SDS011;22070;50.922;5.430;2023-02-28T08:09:47;9.43;;;4.10;;
36001;SDS011;22070;50.922;5.430;2023-02-28T08:12:12;10.03;;;4.53;;
36001;SDS011;22070;50.922;5.430;2023-02-28T08:14:38;12.30;;;4.70;;
36001;SDS011;22070;50.922;5.430;2023-02-28T08:17:04;8.40;;;4.25;;
36001;SDS011;22070;50.922;5.430;2023-02-28T08:19:30;7.87;;;4.57;;
36001;SDS011;22070;50.922;5.430;2023-02-28T08:21:56;9.23;;;4.30;;
36001;SDS011;22070;50.922;5.430;2023-02-28T08:24:22;9.20;;;4.30;;
36001;SDS011;22070;50.922;5.430;2023-02-28T08:26:48;12.07;;;4.33;;
36001;SDS011;22070;50.922;5.430;2023-02-28T08:29:13;7.35;;;4.70;;
36001;SDS011;22070;50.922;5.430;2023-02-28T08:31:39;8.57;;;4.22;;
36001;SDS011;22070;50.922;5.430;2023-02-28T08:34:06;10.07;;;4.32;;
36001;SDS011;22070;50.922;5.430;2023-02-28T08:36:32;10.77;;;4.07;;
36001;SDS011;22070;50.922;5.430;2023-02-28T08:38:58;7.77;;;3.70;;
36001;SDS011;22070;50.922;5.430;2023-02-28T08:41:24;8.00;;;3.63;;
36001;SDS011;22070;50.922;5.430;2023-02-28T08:43:51;9.18;;;3.70;;
36001;SDS011;22070;50.922;5.430;2023-02-28T08:46:16;5.28;;;3.38;;
36001;SDS011;22070;50.922;5.430;2023-02-28T08:48:42;6.03;;;2.83;;
36001;SDS011;22070;50.922;5.430;2023-02-28T08:51:10;5.18;;;2.95;;
36001;SDS011;22070;50.922;5.430;2023-02-28T08:53:43;4.78;;;3.17;;
36001;SDS011;22070;50.922;5.430;2023-02-28T08:56:11;7.85;;;3.70;;
36001;SDS011;22070;50.922;5.430;2023-02-28T08:58:38;4.82;;;2.90;;
36001;SDS011;22070;50.922;5.430;2023-02-28T09:01:12;6.32;;;3.03;;
36001;SDS011;22070;50.922;5.430;2023-02-28T09:03:40;9.15;;;3.08;;
36001;SDS011;22070;50.922;5.430;2023-02-28T09:06:06;4.28;;;2.75;;
36001;SDS011;22070;50.922;5.430;2023-02-28T09:08:33;8.48;;;3.33;;
36001;SDS011;22070;50.922;5.430;2023-02-28T09:10:59;3.30;;;2.55;;
36001;SDS011;22070;50.922;5.430;2023-02-28T09:13:26;9.65;;;2.65;;
36001;SDS011;22070;50.922;5.430;2023-02-28T09:15:53;3.43;;;2.37;;
36001;SDS011;22070;50.922;5.430;2023-02-28T09:18:19;4.40;;;2.72;;
36001;SDS011;22070;50.922;5.430;2023-02-28T09:20:45;5.47;;;2.47;;
36001;SDS011;22070;50.922;5.430;2023-02-28T09:23:11;3.25;;;2.05;;
36001;SDS011;22070;50.922;5.430;2023-02-28T09:25:37;4.82;;;2.17;;
36001;SDS011;22070;50.922;5.430;2023-02-28T09:28:10;3.72;;;2.35;;
36001;SDS011;22070;50.922;5.430;2023-02-28T09:30:36;4.07;;;2.40;;
36001;SDS011;22070;50.922;5.430;2023-02-28T09:33:01;4.13;;;2.10;;
36001;SDS011;22070;50.922;5.430;2023-02-28T09:35:27;5.30;;;2.00;;
36001;SDS011;22070;50.922;5.430;2023-02-28T09:37:53;3.22;;;2.10;;
36001;SDS011;22070;50.922;5.430;2023-02-28T09:40:19;5.20;;;2.15;;
36001;SDS011;22070;50.922;5.430;2023-02-28T09:42:47;8.60;;;2.22;;
36001;SDS011;22070;50.922;5.430;2023-02-28T09:45:24;5.25;;;2.33;;
36001;SDS011;22070;50.922;5.430;2023-02-28T09:48:16;3.15;;;1.83;;
36001;SDS011;22070;50.922;5.430;2023-02-28T09:53:51;5.60;;;1.92;;
36001;SDS011;22070;50.922;5.430;2023-02-28T10:04:05;4.05;;;1.95;;
36001;SDS011;22070;50.922;5.430;2023-02-28T10:06:41;5.82;;;2.10;;
36001;SDS011;22070;50.922;5.430;2023-02-28T10:09:15;5.13;;;1.90;;
36001;SDS011;22070;50.922;5.430;2023-02-28T10:11:45;5.35;;;1.70;;
36001;SDS011;22070;50.922;5.430;2023-02-28T10:14:15;1.70;;;1.60;;
36001;SDS011;22070;50.922;5.430;2023-02-28T10:17:04;4.82;;;2.10;;
36001;SDS011;22070;50.922;5.430;2023-02-28T10:22:32;2.60;;;1.90;;
36001;SDS011;22070;50.922;5.430;2023-02-28T10:25:05;3.78;;;2.00;;
36001;SDS011;22070;50.922;5.430;2023-02-28T10:27:44;2.38;;;1.80;;
36001;SDS011;22070;50.922;5.430;2023-02-28T10:30:10;5.15;;;2.00;;
36001;SDS011;22070;50.922;5.430;2023-02-28T10:32:38;2.20;;;1.73;;
36001;SDS011;22070;50.922;5.430;2023-02-28T10:37:42;2.47;;;1.60;;
36001;SDS011;22070;50.922;5.430;2023-02-28T10:42:56;5.43;;;1.80;;
36001;SDS011;22070;50.922;5.430;2023-02-28T10:45:26;1.80;;;1.55;;
36001;SDS011;22070;50.922;5.430;2023-02-28T10:55:57;4.68;;;1.75;;
36001;SDS011;22070;50.922;5.430;2023-02-28T10:58:55;2.58;;;1.70;;
36001;SDS011;22070;50.922;5.430;2023-02-28T11:03:50;2.80;;;1.60;;
36001;SDS011;22070;50.922;5.430;2023-02-28T11:08:54;2.03;;;1.55;;
36001;SDS011;22070;50.922;5.430;2023-02-28T11:11:22;2.20;;;1.30;;
36001;SDS011;22070;50.922;5.430;2023-02-28T11:13:51;1.60;;;1.40;;
36001;SDS011;22070;50.922;5.430;2023-02-28T11:16:19;1.30;;;1.20;;
36001;SDS011;22070;50.922;5.430;2023-02-28T11:18:49;2.30;;;1.45;;
36001;SDS011;22070;50.922;5.430;2023-02-28T11:21:27;6.28;;;1.50;;
36001;SDS011;22070;50.922;5.430;2023-02-28T11:24:44;1.58;;;1.10;;
36001;SDS011;22070;50.922;5.430;2023-02-28T11:26:49;1.67;;;1.30;;
36001;SDS011;22070;50.922;5.430;2023-02-28T11:29:20;2.55;;;1.50;;
36001;SDS011;22070;50.922;5.430;2023-02-28T11:34:46;2.03;;;1.05;;
36001;SDS011;22070;50.922;5.430;2023-02-28T11:37:25;3.45;;;1.40;;
36001;SDS011;22070;50.922;5.430;2023-02-28T11:39:53;2.58;;;1.38;;
36001;SDS011;22070;50.922;5.430;2023-02-28T11:42:24;3.75;;;1.33;;
36001;SDS011;22070;50.922;5.430;2023-02-28T11:48:02;3.00;;;1.25;;
36001;SDS011;22070;50.922;5.430;2023-02-28T11:53:35;3.53;;;1.30;;
36001;SDS011;22070;50.922;5.430;2023-02-28T12:04:54;3.55;;;1.30;;
36001;SDS011;22070;50.922;5.430;2023-02-28T12:10:22;1.80;;;1.30;;
36001;SDS011;22070;50.922;5.430;2023-02-28T12:15:50;2.33;;;1.55;;
36001;SDS011;22070;50.922;5.430;2023-02-28T12:26:29;3.50;;;2.15;;
36001;SDS011;22070;50.922;5.430;2023-02-28T12:29:21;2.70;;;1.83;;
36001;SDS011;22070;50.922;5.430;2023-02-28T12:34:46;3.47;;;1.88;;
36001;SDS011;22070;50.922;5.430;2023-02-28T12:37:33;2.38;;;1.88;;
36001;SDS011;22070;50.922;5.430;2023-02-28T12:40:09;1.90;;;1.55;;
36001;SDS011;22070;50.922;5.430;2023-02-28T12:42:46;2.25;;;1.80;;
36001;SDS011;22070;50.922;5.430;2023-02-28T12:45:39;3.65;;;2.17;;
36001;SDS011;22070;50.922;5.430;2023-02-28T12:48:09;2.00;;;1.80;;
36001;SDS011;22070;50.922;5.430;2023-02-28T12:50:40;3.60;;;2.03;;
36001;SDS011;22070;50.922;5.430;2023-02-28T12:53:09;3.67;;;1.88;;
36001;SDS011;22070;50.922;5.430;2023-02-28T13:04:04;2.13;;;1.65;;
36001;SDS011;22070;50.922;5.430;2023-02-28T13:09:39;3.53;;;2.00;;
36001;SDS011;22070;50.922;5.430;2023-02-28T13:12:13;3.80;;;2.10;;
36001;SDS011;22070;50.922;5.430;2023-02-28T13:14:40;8.82;;;2.00;;
36001;SDS011;22070;50.922;5.430;2023-02-28T13:22:40;2.45;;;2.25;;
36001;SDS011;22070;50.922;5.430;2023-02-28T13:27:59;6.13;;;2.20;;
36001;SDS011;22070;50.922;5.430;2023-02-28T13:36:22;2.40;;;2.10;;
36001;SDS011;22070;50.922;5.430;2023-02-28T13:38:54;4.07;;;1.80;;
36001;SDS011;22070;50.922;5.430;2023-02-28T14:00:57;3.67;;;2.10;;
36001;SDS011;22070;50.922;5.430;2023-02-28T14:11:48;4.65;;;2.28;;
36001;SDS011;22070;50.922;5.430;2023-02-28T14:17:02;5.35;;;1.90;;
36001;SDS011;22070;50.922;5.430;2023-02-28T14:19:30;3.45;;;2.05;;
36001;SDS011;22070;50.922;5.430;2023-02-28T14:32:47;2.42;;;1.80;;
36001;SDS011;22070;50.922;5.430;2023-02-28T14:35:43;2.75;;;2.05;;
36001;SDS011;22070;50.922;5.430;2023-02-28T14:38:17;7.63;;;2.88;;
36001;SDS011;22070;50.922;5.430;2023-02-28T14:40:47;4.05;;;2.85;;
36001;SDS011;22070;50.922;5.430;2023-02-28T14:43:27;3.53;;;2.45;;
36001;SDS011;22070;50.922;5.430;2023-02-28T14:45:57;2.10;;;1.90;;
36001;SDS011;22070;50.922;5.430;2023-02-28T14:48:25;3.30;;;1.75;;
36001;SDS011;22070;50.922;5.430;2023-02-28T14:51:00;2.28;;;1.73;;
36001;SDS011;22070;50.922;5.430;2023-02-28T14:53:30;3.03;;;1.85;;
36001;SDS011;22070;50.922;5.430;2023-02-28T14:56:01;4.78;;;2.17;;
36001;SDS011;22070;50.922;5.430;2023-02-28T14:58:28;4.10;;;2.05;;
36001;SDS011;22070;50.922;5.430;2023-02-28T15:01:01;4.95;;;1.98;;
36001;SDS011;22070;50.922;5.430;2023-02-28T15:03:35;8.93;;;2.50;;
36001;SDS011;22070;50.922;5.430;2023-02-28T15:06:04;3.88;;;1.77;;
36001;SDS011;22070;50.922;5.430;2023-02-28T15:08:37;3.05;;;2.10;;
36001;SDS011;22070;50.922;5.430;2023-02-28T15:11:36;2.20;;;1.88;;
36001;SDS011;22070;50.922;5.430;2023-02-28T15:13:54;3.22;;;2.00;;
36001;SDS011;22070;50.922;5.430;2023-02-28T15:16:39;5.15;;;2.38;;
36001;SDS011;22070;50.922;5.430;2023-02-28T15:19:19;5.75;;;2.38;;
36001;SDS011;22070;50.922;5.430;2023-02-28T15:21:51;5.38;;;2.35;;
36001;SDS011;22070;50.922;5.430;2023-02-28T15:24:40;4.90;;;2.15;;
36001;SDS011;22070;50.922;5.430;2023-02-28T15:27:13;4.53;;;2.15;;
36001;SDS011;22070;50.922;5.430;2023-02-28T15:29:44;2.95;;;2.20;;
36001;SDS011;22070;50.922;5.430;2023-02-28T15:32:24;3.00;;;2.30;;
36001;SDS011;22070;50.922;5.430;2023-02-28T15:37:31;3.70;;;2.20;;
36001;SDS011;22070;50.922;5.430;2023-02-28T15:40:45;4.72;;;3.03;;
36001;SDS011;22070;50.922;5.430;2023-02-28T15:45:46;3.00;;;2.40;;
36001;SDS011;22070;50.922;5.430;2023-02-28T15:48:18;3.35;;;2.13;;
36001;SDS011;22070;50.922;5.430;2023-02-28T15:50:56;3.72;;;2.33;;
36001;SDS011;22070;50.922;5.430;2023-02-28T15:53:32;5.85;;;3.42;;
36001;SDS011;22070;50.922;5.430;2023-02-28T15:56:02;2.83;;;2.22;;
36001;SDS011;22070;50.922;5.430;2023-02-28T15:58:29;3.53;;;2.22;;
36001;SDS011;22070;50.922;5.430;2023-02-28T16:01:00;2.58;;;1.90;;
36001;SDS011;22070;50.922;5.430;2023-02-28T16:03:37;6.68;;;2.42;;
36001;SDS011;22070;50.922;5.430;2023-02-28T16:09:05;3.88;;;2.38;;
36001;SDS011;22070;50.922;5.430;2023-02-28T16:11:34;3.83;;;1.90;;
36001;SDS011;22070;50.922;5.430;2023-02-28T16:14:03;4.15;;;2.70;;
36001;SDS011;22070;50.922;5.430;2023-02-28T16:16:29;2.53;;;2.05;;
36001;SDS011;22070;50.922;5.430;2023-02-28T16:18:57;3.08;;;2.30;;
36001;SDS011;22070;50.922;5.430;2023-02-28T16:21:23;3.40;;;1.92;;
36001;SDS011;22070;50.922;5.430;2023-02-28T16:23:50;7.45;;;2.20;;
36001;SDS011;22070;50.922;5.430;2023-02-28T16:26:18;2.90;;;2.30;;
36001;SDS011;22070;50.922;5.430;2023-02-28T16:28:47;4.00;;;2.13;;
36001;SDS011;22070;50.922;5.430;2023-02-28T16:31:12;3.42;;;2.08;;
36001;SDS011;22070;50.922;5.430;2023-02-28T16:33:41;4.20;;;2.60;;
36001;SDS011;22070;50.922;5.430;2023-02-28T16:36:17;4.53;;;2.10;;
36001;SDS011;22070;50.922;5.430;2023-02-28T16:38:45;4.40;;;2.13;;
36001;SDS011;22070;50.922;5.430;2023-02-28T16:41:16;3.15;;;2.47;;
36001;SDS011;22070;50.922;5.430;2023-02-28T16:43:47;6.82;;;3.50;;
36001;SDS011;22070;50.922;5.430;2023-02-28T16:46:14;5.25;;;3.20;;
36001;SDS011;22070;50.922;5.430;2023-02-28T16:48:40;4.50;;;2.42;;
36001;SDS011;22070;50.922;5.430;2023-02-28T16:51:15;2.97;;;2.30;;
36001;SDS011;22070;50.922;5.430;2023-02-28T16:53:41;7.05;;;2.75;;
36001;SDS011;22070;50.922;5.430;2023-02-28T16:58:44;2.63;;;2.10;;
36001;SDS011;22070;50.922;5.430;2023-02-28T17:01:11;4.35;;;3.25;;
36001;SDS011;22070;50.922;5.430;2023-02-28T17:03:37;10.80;;;8.30;;
36001;SDS011;22070;50.922;5.430;2023-02-28T17:06:03;6.97;;;4.57;;
36001;SDS011;22070;50.922;5.430;2023-02-28T17:08:30;4.93;;;2.80;;
36001;SDS011;22070;50.922;5.430;2023-02-28T17:10:57;3.38;;;2.58;;
36001;SDS011;22070;50.922;5.430;2023-02-28T17:13:27;7.20;;;3.00;;
36001;SDS011;22070;50.922;5.430;2023-02-28T17:15:52;4.50;;;2.80;;
36001;SDS011;22070;50.922;5.430;2023-02-28T17:18:18;6.30;;;2.80;;
36001;SDS011;22070;50.922;5.430;2023-02-28T17:20:46;7.03;;;3.30;;
36001;SDS011;22070;50.922;5.430;2023-02-28T17:23:12;3.55;;;2.75;;
36001;SDS011;22070;50.922;5.430;2023-02-28T17:25:38;4.05;;;3.05;;
36001;SDS011;22070;50.922;5.430;2023-02-28T17:28:03;4.03;;;2.83;;
36001;SDS011;22070;50.922;5.430;2023-02-28T17:30:31;7.43;;;2.70;;
36001;SDS011;22070;50.922;5.430;2023-02-28T17:32:59;4.72;;;3.20;;
36001;SDS011;22070;50.922;5.430;2023-02-28T17:35:25;7.75;;;3.53;;
36001;SDS011;22070;50.922;5.430;2023-02-28T17:37:51;7.97;;;3.20;;
36001;SDS011;22070;50.922;5.430;2023-02-28T17:40:19;7.63;;;3.70;;
36001;SDS011;22070;50.922;5.430;2023-02-28T17:42:47;9.70;;;4.03;;
36001;SDS011;22070;50.922;5.430;2023-02-28T17:45:13;13.85;;;5.30;;
36001;SDS011;22070;50.922;5.430;2023-02-28T17:50:10;9.35;;;5.50;;
36001;SDS011;22070;50.922;5.430;2023-02-28T17:52:41;11.65;;;5.55;;
36001;SDS011;22070;50.922;5.430;2023-02-28T17:55:08;10.77;;;4.65;;
36001;SDS011;22070;50.922;5.430;2023-02-28T18:00:00;7.43;;;3.83;;
36001;SDS011;22070;50.922;5.430;2023-02-28T18:02:30;9.80;;;4.28;;
36001;SDS011;22070;50.922;5.430;2023-02-28T18:04:55;8.63;;;5.13;;
36001;SDS011;22070;50.922;5.430;2023-02-28T18:07:22;16.33;;;8.00;;
36001;SDS011;22070;50.922;5.430;2023-02-28T18:09:49;20.07;;;9.50;;
36001;SDS011;22070;50.922;5.430;2023-02-28T18:12:14;19.70;;;7.20;;